createdAt,value
2018-06-05T00:00:02.489Z,12.20
2018-06-05T00:02:29.632Z,11.90
2018-06-05T00:04:56.752Z,12.63
2018-06-05T00:07:23.869Z,12.47
2018-06-05T00:09:50.983Z,13.53
2018-06-05T00:12:18.135Z,13.73
2018-06-05T00:14:45.292Z,13.83
2018-06-05T00:17:12.453Z,14.03
2018-06-05T00:19:39.576Z,13.70
2018-06-05T00:22:06.744Z,13.40
2018-06-05T00:24:33.833Z,13.33
2018-06-05T00:27:01.019Z,12.80
2018-06-05T00:29:28.071Z,12.70
2018-06-05T00:31:55.183Z,12.87
2018-06-05T00:34:22.309Z,12.30
2018-06-05T00:36:49.481Z,13.97
2018-06-05T00:39:16.604Z,13.40
2018-06-05T00:41:43.811Z,13.93
2018-06-05T00:44:10.898Z,13.80
2018-06-05T00:46:38.020Z,13.50
2018-06-05T00:49:05.158Z,14.03
2018-06-05T00:51:38.154Z,13.50
2018-06-05T00:54:05.261Z,13.70
2018-06-05T00:56:32.369Z,13.37
2018-06-05T00:58:59.481Z,13.37
2018-06-05T01:01:26.613Z,13.00
2018-06-05T01:03:53.756Z,13.77
2018-06-05T01:06:20.860Z,14.80
2018-06-05T01:08:47.978Z,13.57
2018-06-05T01:11:15.085Z,15.30
2018-06-05T01:13:42.240Z,14.20
2018-06-05T01:16:09.401Z,13.40
2018-06-05T01:18:36.509Z,14.60
2018-06-05T01:21:03.618Z,14.03
2018-06-05T01:23:30.743Z,13.70
2018-06-05T01:25:57.881Z,13.13
2018-06-05T01:28:24.984Z,12.70
2018-06-05T01:30:52.126Z,11.70
2018-06-05T01:33:19.294Z,12.27
2018-06-05T01:35:46.458Z,12.37
2018-06-05T01:38:13.565Z,13.37
2018-06-05T01:40:40.673Z,12.70
2018-06-05T01:43:07.803Z,12.57
2018-06-05T01:45:34.905Z,13.90
2018-06-05T01:48:02.021Z,12.53
2018-06-05T01:50:29.147Z,13.30
2018-06-05T01:52:56.270Z,13.00
2018-06-05T01:55:23.393Z,13.40
2018-06-05T01:57:50.505Z,13.00
2018-06-05T02:00:17.627Z,14.00
2018-06-05T02:02:44.727Z,14.50
2018-06-05T02:05:11.835Z,14.20
2018-06-05T02:07:38.954Z,13.23
2018-06-05T02:10:06.073Z,15.07
2018-06-05T02:12:33.240Z,15.33
2018-06-05T02:15:00.352Z,15.47
2018-06-05T02:17:27.482Z,14.97
2018-06-05T02:19:54.650Z,15.20
2018-06-05T02:22:21.776Z,15.40
2018-06-05T02:24:48.896Z,15.60
2018-06-05T02:27:16.054Z,15.53
2018-06-05T02:29:43.173Z,13.73
2018-06-05T02:32:10.281Z,14.70
2018-06-05T02:34:37.395Z,14.10
2018-06-05T02:37:04.518Z,14.27
2018-06-05T02:39:31.639Z,15.00
2018-06-05T02:41:58.788Z,16.10
2018-06-05T02:44:25.994Z,17.13
2018-06-05T02:46:53.168Z,18.00
2018-06-05T02:49:20.278Z,17.73
2018-06-05T02:51:47.401Z,18.00
2018-06-05T02:54:15.034Z,17.37
2018-06-05T02:56:42.202Z,17.00
2018-06-05T02:59:09.333Z,18.10
2018-06-05T03:01:36.442Z,17.43
2018-06-05T03:04:03.914Z,17.80
2018-06-05T03:06:31.086Z,17.93
2018-06-05T03:08:58.210Z,17.90
2018-06-05T03:11:25.369Z,19.70
2018-06-05T03:13:52.513Z,19.97
2018-06-05T03:16:19.617Z,18.50
2018-06-05T03:18:46.729Z,18.80
2018-06-05T03:21:13.867Z,18.43
2018-06-05T03:23:40.972Z,18.13
2018-06-05T03:26:08.092Z,18.20
2018-06-05T03:28:35.208Z,19.87
2018-06-05T03:31:02.345Z,17.93
2018-06-05T03:33:29.489Z,18.87
2018-06-05T03:35:56.629Z,18.80
2018-06-05T03:38:23.756Z,18.40
2018-06-05T03:40:50.915Z,19.20
2018-06-05T03:43:18.007Z,20.73
2018-06-05T03:45:45.121Z,19.10
2018-06-05T03:48:12.229Z,19.00
2018-06-05T03:50:39.345Z,20.43
2018-06-05T03:53:06.455Z,21.40
2018-06-05T03:55:33.677Z,20.60
2018-06-05T03:58:00.824Z,21.23
2018-06-05T04:00:27.953Z,21.57
2018-06-05T04:02:55.080Z,20.80
2018-06-05T04:05:22.210Z,20.50
2018-06-05T04:07:49.316Z,22.30
2018-06-05T04:10:16.436Z,23.37
2018-06-05T04:12:43.608Z,23.60
2018-06-05T04:15:10.732Z,23.37
2018-06-05T04:17:37.869Z,24.40
2018-06-05T04:20:04.987Z,23.63
2018-06-05T04:22:32.181Z,23.50
2018-06-05T04:24:59.337Z,25.67
2018-06-05T04:27:26.822Z,25.73
2018-06-05T04:29:53.925Z,24.03
2018-06-05T04:32:21.044Z,27.33
2018-06-05T04:34:48.193Z,27.77
2018-06-05T04:37:15.837Z,25.30
2018-06-05T04:39:42.958Z,26.43
2018-06-05T04:42:10.062Z,25.23
2018-06-05T04:44:37.566Z,26.20
2018-06-05T04:47:04.691Z,25.57
2018-06-05T04:49:31.828Z,26.10
2018-06-05T04:51:59.007Z,25.97
2018-06-05T04:54:26.337Z,26.87
2018-06-05T04:56:53.492Z,25.43
2018-06-05T04:59:20.685Z,24.97
2018-06-05T05:01:47.889Z,27.57
2018-06-05T05:04:14.999Z,25.50
2018-06-05T05:06:42.180Z,24.80
2018-06-05T05:09:09.289Z,24.03
2018-06-05T05:11:36.514Z,24.13
2018-06-05T05:14:03.641Z,23.77
2018-06-05T05:16:30.776Z,24.07
2018-06-05T05:18:57.889Z,24.37
2018-06-05T05:21:25.013Z,24.03
2018-06-05T05:23:52.104Z,23.77
2018-06-05T05:26:19.218Z,22.80
2018-06-05T05:28:46.330Z,24.50
2018-06-05T05:31:13.435Z,22.90
2018-06-05T05:33:40.576Z,25.20
2018-06-05T05:36:07.712Z,24.50
2018-06-05T05:38:34.805Z,24.67
2018-06-05T05:41:01.925Z,24.47
2018-06-05T05:43:29.050Z,24.23
2018-06-05T05:45:56.154Z,23.70
2018-06-05T05:48:23.295Z,25.53
2018-06-05T05:50:50.396Z,23.37
2018-06-05T05:53:17.547Z,24.47
2018-06-05T05:55:46.043Z,22.67
2018-06-05T05:58:13.177Z,22.40
2018-06-05T06:00:40.308Z,22.60
2018-06-05T06:03:07.417Z,21.50
2018-06-05T06:05:34.546Z,21.87
2018-06-05T06:08:01.780Z,20.43
2018-06-05T06:10:28.898Z,22.50
2018-06-05T06:12:56.026Z,21.87
2018-06-05T06:15:23.130Z,21.43
2018-06-05T06:17:50.315Z,20.80
2018-06-05T06:20:17.421Z,21.20
2018-06-05T06:22:51.054Z,22.00
2018-06-05T06:25:18.655Z,20.33
2018-06-05T06:27:46.075Z,20.87
2018-06-05T06:30:13.232Z,20.13
2018-06-05T06:32:40.389Z,19.10
2018-06-05T06:35:08.369Z,19.17
2018-06-05T06:37:35.609Z,19.83
2018-06-05T06:40:02.738Z,18.60
2018-06-05T06:42:29.845Z,17.87
2018-06-05T06:44:56.989Z,19.50
2018-06-05T06:47:24.128Z,19.57
2018-06-05T06:49:51.757Z,19.33
2018-06-05T06:52:18.868Z,19.27
2018-06-05T06:54:46.016Z,18.23
2018-06-05T06:57:13.150Z,18.57
2018-06-05T06:59:40.320Z,18.00
2018-06-05T07:02:07.430Z,18.50
2018-06-05T07:04:34.554Z,18.90
2018-06-05T07:07:01.673Z,18.57
2018-06-05T07:09:28.837Z,17.70
2018-06-05T07:11:56.008Z,17.50
2018-06-05T07:14:23.128Z,17.70
2018-06-05T07:16:50.270Z,15.60
2018-06-05T07:19:17.370Z,16.50
2018-06-05T07:21:44.505Z,15.80
2018-06-05T07:24:11.642Z,16.60
2018-06-05T07:26:38.769Z,16.17
2018-06-05T07:29:05.905Z,16.10
2018-06-05T07:31:33.111Z,17.00
2018-06-05T07:34:00.306Z,14.40
2018-06-05T07:36:27.580Z,15.47
2018-06-05T07:38:54.703Z,14.80
2018-06-05T07:41:21.880Z,16.93
2018-06-05T07:43:49.137Z,14.10
2018-06-05T07:46:16.355Z,13.43
2018-06-05T07:48:43.537Z,13.80
2018-06-05T07:51:10.649Z,13.60
2018-06-05T07:53:37.950Z,14.20
2018-06-05T07:56:05.161Z,14.17
2018-06-05T07:58:32.272Z,14.33
2018-06-05T08:00:59.390Z,13.97
2018-06-05T08:03:26.521Z,14.20
2018-06-05T08:05:53.625Z,13.60
2018-06-05T08:08:20.811Z,14.77
2018-06-05T08:10:47.921Z,13.07
2018-06-05T08:13:15.029Z,12.80
2018-06-05T08:15:42.153Z,14.37
2018-06-05T08:18:09.311Z,14.00
2018-06-05T08:20:36.393Z,13.20
2018-06-05T08:23:03.509Z,14.30
2018-06-05T08:25:30.693Z,14.40
2018-06-05T08:27:57.806Z,13.73
2018-06-05T08:30:24.906Z,13.63
2018-06-05T08:32:52.009Z,14.77
2018-06-05T08:35:19.113Z,14.50
2018-06-05T08:37:46.261Z,14.60
2018-06-05T08:40:13.369Z,12.30
2018-06-05T08:42:40.509Z,13.87
2018-06-05T08:45:07.624Z,14.20
2018-06-05T08:47:34.730Z,13.50
2018-06-05T08:50:01.841Z,12.63
2018-06-05T08:52:28.949Z,12.03
2018-06-05T08:54:56.079Z,13.27
2018-06-05T08:57:23.194Z,13.27
2018-06-05T08:59:50.358Z,15.70
2018-06-05T09:02:17.493Z,15.20
2018-06-05T09:04:44.624Z,13.67
2018-06-05T09:07:11.739Z,13.63
2018-06-05T09:09:38.853Z,15.97
2018-06-05T09:12:05.961Z,15.40
2018-06-05T09:14:33.073Z,14.47
2018-06-05T09:17:00.232Z,15.47
2018-06-05T09:19:27.317Z,16.80
2018-06-05T09:21:54.439Z,14.53
2018-06-05T09:24:21.611Z,13.33
2018-06-05T09:26:48.756Z,13.80
2018-06-05T09:29:15.878Z,13.37
2018-06-05T09:31:42.997Z,14.03
2018-06-05T09:34:10.109Z,14.40
2018-06-05T09:36:37.242Z,15.20
2018-06-05T09:39:05.954Z,14.00
2018-06-05T09:41:33.070Z,13.83
2018-06-05T09:44:00.195Z,14.37
2018-06-05T09:46:27.320Z,13.83
2018-06-05T09:48:54.489Z,13.73
2018-06-05T09:51:21.689Z,13.27
2018-06-05T09:53:48.789Z,14.47
2018-06-05T09:56:15.901Z,15.33
2018-06-05T09:58:43.019Z,12.20
2018-06-05T10:01:10.132Z,13.00
2018-06-05T10:03:37.257Z,13.30
2018-06-05T10:06:04.373Z,15.87
2018-06-05T10:08:32.004Z,14.70
2018-06-05T10:10:59.119Z,15.53
2018-06-05T10:13:26.228Z,14.23
2018-06-05T10:15:53.345Z,15.10
2018-06-05T10:18:20.510Z,13.43
2018-06-05T10:20:47.689Z,13.47
2018-06-05T10:23:14.808Z,13.17
2018-06-05T10:25:42.066Z,15.40
2018-06-05T10:28:09.192Z,17.00
2018-06-05T10:30:37.421Z,13.20
2018-06-05T10:33:04.469Z,15.07
2018-06-05T10:35:31.613Z,15.23
2018-06-05T10:37:58.742Z,14.17
2018-06-05T10:40:25.880Z,13.40
2018-06-05T10:42:53.034Z,14.53
2018-06-05T10:45:20.136Z,18.90
2018-06-05T10:47:47.273Z,14.90
2018-06-05T10:50:14.377Z,16.13
2018-06-05T10:52:41.484Z,14.50
2018-06-05T10:55:08.634Z,13.83
2018-06-05T10:57:35.752Z,16.13
2018-06-05T11:00:02.888Z,13.87
2018-06-05T11:02:30.010Z,13.90
2018-06-05T11:04:57.113Z,14.77
2018-06-05T11:07:24.286Z,13.70
2018-06-05T11:09:51.460Z,12.77
2018-06-05T11:12:18.550Z,12.90
2018-06-05T11:14:45.692Z,13.50
2018-06-05T11:17:12.816Z,14.23
2018-06-05T11:19:39.953Z,15.97
2018-06-05T11:22:07.057Z,13.20
2018-06-05T11:24:34.177Z,13.90
2018-06-05T11:27:01.349Z,14.50
2018-06-05T11:29:28.501Z,13.30
2018-06-05T11:31:55.782Z,16.80
2018-06-05T11:34:22.905Z,15.37
2018-06-05T11:36:50.098Z,15.83
2018-06-05T11:39:17.217Z,14.20
2018-06-05T11:41:44.341Z,14.47
2018-06-05T11:44:11.455Z,15.97
2018-06-05T11:46:38.589Z,16.10
2018-06-05T11:49:05.695Z,14.23
2018-06-05T11:51:32.817Z,15.83
2018-06-05T11:54:00.015Z,17.90
2018-06-05T11:56:27.148Z,14.57
2018-06-05T11:58:54.349Z,14.30
2018-06-05T12:01:21.549Z,12.73
2018-06-05T12:03:48.765Z,15.10
2018-06-05T12:06:15.873Z,15.70
2018-06-05T12:08:42.997Z,14.10
2018-06-05T12:11:10.120Z,15.53
2018-06-05T12:13:37.265Z,17.87
2018-06-05T12:16:04.516Z,17.10
2018-06-05T12:18:31.663Z,17.17
2018-06-05T12:20:58.853Z,14.60
2018-06-05T12:23:25.984Z,17.60
2018-06-05T12:25:53.476Z,19.00
2018-06-05T12:28:20.743Z,18.30
2018-06-05T12:30:48.295Z,17.33
2018-06-05T12:33:15.422Z,18.80
2018-06-05T12:35:42.576Z,19.17
2018-06-05T12:38:09.697Z,15.90
2018-06-05T12:40:36.817Z,15.23
2018-06-05T12:43:03.941Z,15.33
2018-06-05T12:45:31.059Z,15.03
2018-06-05T12:47:58.314Z,14.13
2018-06-05T12:50:25.413Z,13.47
2018-06-05T12:52:52.530Z,14.20
2018-06-05T12:55:19.649Z,14.07
2018-06-05T12:57:46.771Z,13.30
2018-06-05T13:00:13.925Z,15.10
2018-06-05T13:02:41.072Z,15.17
2018-06-05T13:05:08.200Z,13.57
2018-06-05T13:07:36.718Z,13.67
2018-06-05T13:10:03.994Z,14.53
2018-06-05T13:12:31.178Z,15.20
2018-06-05T13:14:58.308Z,13.97
2018-06-05T13:17:25.668Z,14.77
2018-06-05T13:19:52.769Z,13.47
2018-06-05T13:22:19.881Z,14.10
2018-06-05T13:24:47.019Z,15.10
2018-06-05T13:27:14.152Z,15.53
2018-06-05T13:29:41.267Z,15.30
2018-06-05T13:32:08.384Z,15.00
2018-06-05T13:34:35.540Z,13.27
2018-06-05T13:37:02.745Z,16.90
2018-06-05T13:39:29.877Z,16.63
2018-06-05T13:41:57.000Z,15.80
2018-06-05T13:44:25.208Z,13.93
2018-06-05T13:46:52.309Z,15.83
2018-06-05T13:49:19.428Z,14.50
2018-06-05T13:51:46.687Z,14.33
2018-06-05T13:54:13.797Z,13.87
2018-06-05T13:56:40.945Z,12.67
2018-06-05T13:59:08.089Z,15.80
2018-06-05T14:01:35.264Z,14.87
2018-06-05T14:04:02.408Z,14.87
2018-06-05T14:06:29.521Z,15.17
2018-06-05T14:08:56.909Z,14.63
2018-06-05T14:11:24.026Z,13.17
2018-06-05T14:13:51.136Z,13.53
2018-06-05T14:16:18.269Z,14.23
2018-06-05T14:18:45.416Z,13.10
2018-06-05T14:21:12.589Z,14.50
2018-06-05T14:23:39.727Z,14.50
2018-06-05T14:26:06.867Z,14.00
2018-06-05T14:28:33.973Z,13.30
2018-06-05T14:31:01.105Z,15.57
2018-06-05T14:33:28.216Z,13.93
2018-06-05T14:35:55.389Z,12.20
2018-06-05T14:38:22.485Z,13.33
2018-06-05T14:40:49.626Z,14.23
2018-06-05T14:43:16.745Z,14.43
2018-06-05T14:45:44.411Z,12.70
2018-06-05T14:48:11.512Z,13.83
2018-06-05T14:50:38.655Z,14.00
2018-06-05T14:53:05.755Z,13.93
2018-06-05T14:55:32.861Z,12.90
2018-06-05T14:58:00.000Z,12.10
2018-06-05T15:00:27.116Z,13.00
2018-06-05T15:02:54.247Z,13.23
2018-06-05T15:05:21.354Z,14.77
2018-06-05T15:07:48.504Z,14.53
2018-06-05T15:10:15.648Z,13.67
2018-06-05T15:12:42.759Z,13.70
2018-06-05T15:15:09.896Z,13.00
2018-06-05T15:17:36.997Z,12.77
2018-06-05T15:20:04.285Z,12.97
2018-06-05T15:22:31.452Z,11.60
2018-06-05T15:24:58.621Z,13.30
2018-06-05T15:27:25.758Z,11.87
2018-06-05T15:29:52.883Z,12.40
2018-06-05T15:32:19.997Z,13.47
2018-06-05T15:34:47.178Z,14.43
2018-06-05T15:37:14.733Z,13.83
2018-06-05T15:39:41.951Z,15.17
2018-06-05T15:42:09.073Z,14.00
2018-06-05T15:44:36.199Z,12.97
2018-06-05T15:47:03.317Z,13.07
2018-06-05T15:49:30.420Z,16.80
2018-06-05T15:51:57.541Z,14.73
2018-06-05T15:54:24.700Z,14.67
2018-06-05T15:56:51.799Z,14.67
2018-06-05T15:59:18.924Z,14.70
2018-06-05T16:01:46.125Z,14.63
2018-06-05T16:04:13.279Z,15.17
2018-06-05T16:06:40.392Z,16.33
2018-06-05T16:09:08.697Z,15.03
2018-06-05T16:11:35.865Z,14.23
2018-06-05T16:14:03.092Z,15.93
2018-06-05T16:16:30.218Z,15.03
2018-06-05T16:18:57.393Z,14.20
2018-06-05T16:21:24.524Z,16.10
2018-06-05T16:23:51.641Z,16.70
2018-06-05T16:26:18.921Z,16.57
2018-06-05T16:28:46.037Z,16.80
2018-06-05T16:31:14.907Z,16.57
2018-06-05T16:33:42.226Z,17.37
2018-06-05T16:36:09.871Z,18.20
2018-06-05T16:38:36.970Z,17.67
2018-06-05T16:41:04.082Z,18.07
2018-06-05T16:43:31.261Z,17.37
2018-06-05T16:45:58.370Z,16.83
2018-06-05T16:48:25.498Z,15.87
2018-06-05T16:50:52.632Z,16.20
2018-06-05T16:53:19.825Z,17.30
2018-06-05T16:55:47.070Z,16.03
2018-06-05T16:58:14.237Z,15.60
2018-06-05T17:00:41.383Z,16.90
2018-06-05T17:03:08.561Z,17.93
2018-06-05T17:05:35.714Z,19.13
2018-06-05T17:08:02.818Z,19.10
2018-06-05T17:10:30.513Z,18.70
2018-06-05T17:12:57.623Z,17.60
2018-06-05T17:15:24.756Z,18.33
2018-06-05T17:17:51.885Z,17.27
2018-06-05T17:20:19.009Z,18.80
2018-06-05T17:22:46.162Z,18.80
2018-06-05T17:25:13.322Z,18.50
2018-06-05T17:27:40.462Z,19.20
2018-06-05T17:30:07.650Z,18.00
2018-06-05T17:32:34.857Z,17.20
2018-06-05T17:35:03.194Z,17.97
2018-06-05T17:37:30.405Z,19.10
2018-06-05T17:39:57.693Z,19.87
2018-06-05T17:42:24.793Z,19.97
2018-06-05T17:44:51.911Z,20.10
2018-06-05T17:47:19.048Z,20.60
2018-06-05T17:49:46.181Z,18.90
2018-06-05T17:52:13.335Z,19.30
2018-06-05T17:54:40.445Z,18.53
2018-06-05T17:57:07.597Z,19.00
2018-06-05T17:59:34.758Z,19.00
2018-06-05T18:02:01.890Z,19.60
2018-06-05T18:04:29.018Z,19.50
2018-06-05T18:06:56.220Z,20.43
2018-06-05T18:09:23.352Z,19.43
2018-06-05T18:11:52.045Z,18.77
2018-06-05T18:14:19.224Z,18.63
2018-06-05T18:16:47.756Z,19.63
2018-06-05T18:19:14.881Z,20.70
2018-06-05T18:21:46.835Z,20.53
2018-06-05T18:24:14.085Z,19.80
2018-06-05T18:26:41.260Z,21.20
2018-06-05T18:29:08.328Z,19.90
2018-06-05T18:31:35.433Z,20.00
2018-06-05T18:34:04.056Z,20.10
2018-06-05T18:36:31.387Z,22.43
2018-06-05T18:38:58.497Z,23.43
2018-06-05T18:41:27.144Z,22.50
2018-06-05T18:43:54.263Z,22.03
2018-06-05T18:46:21.462Z,22.43
2018-06-05T18:48:48.609Z,23.57
2018-06-05T18:51:15.827Z,23.80
2018-06-05T18:53:42.973Z,25.43
2018-06-05T18:56:10.105Z,26.23
2018-06-05T18:58:37.232Z,25.07
2018-06-05T19:01:04.486Z,25.20
2018-06-05T19:03:31.614Z,24.50
2018-06-05T19:06:02.618Z,25.90
2018-06-05T19:08:29.760Z,25.40
2018-06-05T19:10:57.093Z,25.70
2018-06-05T19:13:24.773Z,24.73
2018-06-05T19:15:51.896Z,26.57
2018-06-05T19:18:19.813Z,27.50
2018-06-05T19:20:47.365Z,27.73
2018-06-05T19:23:14.835Z,26.43
2018-06-05T19:25:42.051Z,26.70
2018-06-05T19:28:09.190Z,27.33
2018-06-05T19:30:36.337Z,28.10
2018-06-05T19:33:03.449Z,27.30
2018-06-05T19:35:30.583Z,25.80
2018-06-05T19:37:59.652Z,26.27
2018-06-05T19:40:26.768Z,25.40
2018-06-05T19:42:53.889Z,27.23
2018-06-05T19:45:21.013Z,26.83
2018-06-05T19:47:48.132Z,26.20
2018-06-05T19:50:15.246Z,25.87
2018-06-05T19:52:42.457Z,25.90
2018-06-05T19:55:09.573Z,27.50
2018-06-05T19:57:36.682Z,25.90
2018-06-05T20:00:03.809Z,24.60
2018-06-05T20:02:30.938Z,26.40
2018-06-05T20:04:58.170Z,26.07
2018-06-05T20:07:25.282Z,25.13
2018-06-05T20:09:52.397Z,24.93
2018-06-05T20:12:19.532Z,27.10
2018-06-05T20:14:46.646Z,25.80
2018-06-05T20:17:13.758Z,24.63
2018-06-05T20:19:40.874Z,25.50
2018-06-05T20:22:07.982Z,25.57
2018-06-05T20:24:35.085Z,25.30
2018-06-05T20:27:02.293Z,24.87
2018-06-05T20:29:29.422Z,26.30
2018-06-05T20:31:56.558Z,25.50
2018-06-05T20:34:23.668Z,24.00
2018-06-05T20:36:50.821Z,24.50
2018-06-05T20:39:18.260Z,26.33
2018-06-05T20:41:45.378Z,23.87
2018-06-05T20:44:12.518Z,24.80
2018-06-05T20:46:39.641Z,24.63
2018-06-05T20:49:06.825Z,24.37
2018-06-05T20:51:33.945Z,24.63
2018-06-05T20:54:01.058Z,25.07
2018-06-05T20:56:28.182Z,23.73
2018-06-05T20:58:55.330Z,24.70
2018-06-05T21:01:22.475Z,24.10
2018-06-05T21:03:49.617Z,22.93
2018-06-05T21:06:16.849Z,23.63
2018-06-05T21:08:44.056Z,23.17
2018-06-05T21:11:11.294Z,23.33
2018-06-05T21:13:38.452Z,22.70
2018-06-05T21:16:05.609Z,23.93
2018-06-05T21:18:32.717Z,23.40
2018-06-05T21:20:59.829Z,23.30
2018-06-05T21:23:26.952Z,23.53
2018-06-05T21:25:54.069Z,24.20
2018-06-05T21:28:21.202Z,23.47
2018-06-05T21:30:48.334Z,23.03
2018-06-05T21:33:15.442Z,24.37
2018-06-05T21:35:42.554Z,23.33
2018-06-05T21:38:09.689Z,22.47
2018-06-05T21:40:36.796Z,22.60
2018-06-05T21:43:03.931Z,23.00
2018-06-05T21:45:31.069Z,23.10
2018-06-05T21:47:58.181Z,24.27
2018-06-05T21:50:25.326Z,22.50
2018-06-05T21:52:52.457Z,23.80
2018-06-05T21:55:19.573Z,23.53
2018-06-05T21:57:46.779Z,23.70
2018-06-05T22:00:14.053Z,23.30
2018-06-05T22:02:41.164Z,24.10
2018-06-05T22:05:08.276Z,24.60
2018-06-05T22:07:35.380Z,24.10
2018-06-05T22:10:02.502Z,24.30
2018-06-05T22:12:29.608Z,24.13
2018-06-05T22:14:56.741Z,23.57
2018-06-05T22:17:23.848Z,25.53
2018-06-05T22:19:50.989Z,24.30
2018-06-05T22:22:18.101Z,23.50
2018-06-05T22:24:45.216Z,22.60
2018-06-05T22:27:12.344Z,24.27
2018-06-05T22:29:39.453Z,24.60
2018-06-05T22:32:06.567Z,23.60
2018-06-05T22:34:33.680Z,25.20
2018-06-05T22:37:00.792Z,25.63
2018-06-05T22:39:27.978Z,25.80
2018-06-05T22:41:55.145Z,24.40
2018-06-05T22:44:22.253Z,26.87
2018-06-05T22:46:49.773Z,25.90
2018-06-05T22:49:16.873Z,25.50
2018-06-05T22:51:44.016Z,25.73
2018-06-05T22:54:11.129Z,24.07
2018-06-05T22:56:38.245Z,24.33
2018-06-05T22:59:05.362Z,24.27
2018-06-05T23:01:32.478Z,23.40
2018-06-05T23:03:59.673Z,23.90
2018-06-05T23:06:26.798Z,23.97
2018-06-05T23:08:53.981Z,24.70
2018-06-05T23:11:21.092Z,24.23
2018-06-05T23:13:48.217Z,24.50
2018-06-05T23:16:15.338Z,24.43
2018-06-05T23:18:42.816Z,23.47
2018-06-05T23:21:09.926Z,24.50
2018-06-05T23:23:37.049Z,23.97
2018-06-05T23:26:04.305Z,25.30
2018-06-05T23:28:31.416Z,24.80
2018-06-05T23:30:58.527Z,25.67
2018-06-05T23:33:25.757Z,24.20
2018-06-05T23:35:53.449Z,25.23
2018-06-05T23:38:20.659Z,25.70
2018-06-05T23:40:47.769Z,26.00
2018-06-05T23:43:14.869Z,25.50
2018-06-05T23:45:41.993Z,25.63
2018-06-05T23:48:09.101Z,25.90
2018-06-05T23:50:36.240Z,25.63
2018-06-05T23:53:03.370Z,25.63
2018-06-05T23:55:30.485Z,25.60
2018-06-05T23:57:57.601Z,26.07
